Time;durP1;ratioP1;P1;durP2;ratioP2;P2;SDS_P1;SDS_P2;PMS_P1;PMS_P2;Temp;Humidity;BMP_temperature;BMP_pressure;BME280_temperature;BME280_humidity;BME280_pressure;Samples;Min_cycle;Max_cycle;Signal;HPM_P1;HPM_P2
2022/03/13 00:01:01;;;;;;;;;0.00;0.00;;;;;;;;2;288084205;288084205;-75
2022/03/13 00:09:20;;;;;;;;;0.00;0.00;;;;;;;;2;261076520;261076520;-76
2022/03/13 00:18:48;;;;;;;;;0.00;0.00;;;;;;;;2;288085428;288085428;-76
2022/03/13 00:27:04;;;;;;;;;0.00;0.00;;;;;;;;2;261077502;261077502;-76
2022/03/13 00:36:32;;;;;;;;;0.00;0.00;;;;;;;;2;288084722;288084722;-75
2022/03/13 00:44:49;;;;;;;;;0.00;0.00;;;;;;;;2;261076525;261076525;-76
2022/03/13 00:54:16;;;;;;;;;0.00;0.00;;;;;;;;2;288082983;288082983;-75
2022/03/13 01:02:32;;;;;;;;;0.00;0.00;;;;;;;;2;261076834;261076834;-76
2022/03/13 01:12:00;;;;;;;;;0.00;0.00;;;;;;;;2;288083392;288083392;-76
2022/03/13 01:20:17;;;;;;;;;0.00;0.00;;;;;;;;2;261079581;261079581;-76
2022/03/13 01:29:45;;;;;;;;;0.00;0.00;;;;;;;;2;288083429;288083429;-76
2022/03/13 01:38:02;;;;;;;;;0.00;0.00;;;;;;;;2;261077485;261077485;-76
2022/03/13 01:47:29;;;;;;;;;0.00;0.00;;;;;;;;2;288085933;288085933;-76
2022/03/13 01:55:45;;;;;;;;;0.00;0.00;;;;;;;;2;261076500;261076500;-76
2022/03/13 02:05:25;;;;;;;;;0.00;0.00;;;;;;;;2;288086804;288086804;-76
2022/03/13 02:13:41;;;;;;;;;0.00;0.00;;;;;;;;2;261078881;261078881;-76
2022/03/13 02:23:17;;;;;;;;;0.00;0.00;;;;;;;;2;288087306;288087306;-76
2022/03/13 02:31:34;;;;;;;;;0.00;0.00;;;;;;;;2;261076960;261076960;-75
2022/03/13 02:41:01;;;;;;;;;0.00;0.00;;;;;;;;2;288082125;288082125;-76
2022/03/13 02:49:19;;;;;;;;;0.00;0.00;;;;;;;;2;261079332;261079332;-76
2022/03/13 02:58:46;;;;;;;;;0.00;0.00;;;;;;;;2;288084045;288084045;-75
2022/03/13 03:07:03;;;;;;;;;0.00;0.00;;;;;;;;2;261077724;261077724;-75
2022/03/13 03:16:30;;;;;;;;;0.00;0.00;;;;;;;;2;288084912;288084912;-75
2022/03/13 03:24:48;;;;;;;;;0.00;0.00;;;;;;;;2;261078563;261078563;-75
2022/03/13 03:34:17;;;;;;;;;0.00;0.00;;;;;;;;2;288085026;288085026;-75
2022/03/13 03:42:34;;;;;;;;;0.00;0.00;;;;;;;;2;261078127;261078127;-76
2022/03/13 03:52:01;;;;;;;;;0.00;0.00;;;;;;;;2;288084049;288084049;-75
2022/03/13 04:00:17;;;;;;;;;0.00;0.00;;;;;;;;2;261074011;261074011;-76
2022/03/13 04:09:45;;;;;;;;;0.00;0.00;;;;;;;;2;288083438;288083438;-75
2022/03/13 04:18:01;;;;;;;;;0.00;0.00;;;;;;;;2;261078571;261078571;-75
2022/03/13 04:27:30;;;;;;;;;0.00;0.00;;;;;;;;2;288086265;288086265;-75
2022/03/13 04:35:46;;;;;;;;;0.00;0.00;;;;;;;;2;261075371;261075371;-75
2022/03/13 04:45:14;;;;;;;;;0.00;0.00;;;;;;;;2;288084468;288084468;-75
2022/03/13 04:53:30;;;;;;;;;0.00;0.00;;;;;;;;2;261075069;261075069;-76
2022/03/13 05:02:57;;;;;;;;;0.00;0.00;;;;;;;;2;288086265;288086265;-75
2022/03/13 05:11:12;;;;;;;;;0.00;0.00;;;;;;;;2;261078983;261078983;-75
2022/03/13 05:20:40;;;;;;;;;0.00;0.00;;;;;;;;2;288082892;288082892;-75
2022/03/13 05:28:56;;;;;;;;;0.00;0.00;;;;;;;;2;261077009;261077009;-75
2022/03/13 05:38:23;;;;;;;;;0.00;0.00;;;;;;;;2;288085355;288085355;-75
2022/03/13 05:46:39;;;;;;;;;0.00;0.00;;;;;;;;2;261077150;261077150;-75
2022/03/13 05:56:07;;;;;;;;;0.00;0.00;;;;;;;;2;288082563;288082563;-75
2022/03/13 06:04:23;;;;;;;;;0.00;0.00;;;;;;;;2;261075210;261075210;-75
2022/03/13 06:13:51;;;;;;;;;0.00;0.00;;;;;;;;2;288081839;288081839;-75
2022/03/13 06:22:06;;;;;;;;;0.00;0.00;;;;;;;;2;261077031;261077031;-75
2022/03/13 06:31:34;;;;;;;;;0.00;0.00;;;;;;;;2;288084407;288084407;-75
2022/03/13 06:39:50;;;;;;;;;0.00;0.00;;;;;;;;2;261075718;261075718;-76
2022/03/13 06:49:17;;;;;;;;;0.00;0.00;;;;;;;;2;288084096;288084096;-75
2022/03/13 06:57:33;;;;;;;;;0.00;0.00;;;;;;;;2;261080523;261080523;-75
2022/03/13 07:07:00;;;;;;;;;0.00;0.00;;;;;;;;2;288088020;288088020;-75
2022/03/13 07:15:18;;;;;;;;;0.00;0.00;;;;;;;;2;261079062;261079062;-75
2022/03/13 07:24:48;;;;;;;;;0.00;0.00;;;;;;;;2;288084620;288084620;-75
2022/03/13 07:33:04;;;;;;;;;0.00;0.00;;;;;;;;2;261076025;261076025;-75
2022/03/13 07:42:31;;;;;;;;;0.00;0.00;;;;;;;;2;288084535;288084535;-76
2022/03/13 07:50:47;;;;;;;;;0.00;0.00;;;;;;;;2;261076950;261076950;-74
2022/03/13 08:00:17;;;;;;;;;0.00;0.00;;;;;;;;2;288081617;288081617;-74
2022/03/13 08:08:33;;;;;;;;;0.00;0.00;;;;;;;;2;261078032;261078032;-75
2022/03/13 08:18:00;;;;;;;;;0.00;0.00;;;;;;;;2;288085147;288085147;-75
2022/03/13 08:26:16;;;;;;;;;0.00;0.00;;;;;;;;2;261079732;261079732;-75
2022/03/13 08:35:44;;;;;;;;;0.00;0.00;;;;;;;;2;288086751;288086751;-75
2022/03/13 08:44:00;;;;;;;;;0.00;0.00;;;;;;;;2;261077755;261077755;-75
2022/03/13 08:53:28;;;;;;;;;0.00;0.00;;;;;;;;2;288088025;288088025;-75
2022/03/13 09:01:43;;;;;;;;;0.00;0.00;;;;;;;;2;261075336;261075336;-74
2022/03/13 09:11:11;;;;;;;;;0.00;0.00;;;;;;;;2;288087487;288087487;-73
2022/03/13 09:19:27;;;;;;;;;0.00;0.00;;;;;;;;2;261076409;261076409;-73
2022/03/13 09:28:54;;;;;;;;;0.00;0.00;;;;;;;;2;288084822;288084822;-74
2022/03/13 09:37:10;;;;;;;;;0.00;0.00;;;;;;;;2;261079163;261079163;-75
2022/03/13 09:46:38;;;;;;;;;0.00;0.00;;;;;;;;2;288084028;288084028;-77
2022/03/13 09:54:53;;;;;;;;;0.00;0.00;;;;;;;;2;261078338;261078338;-77
2022/03/13 10:04:21;;;;;;;;;0.00;0.00;;;;;;;;2;288084376;288084376;-77
2022/03/13 10:12:40;;;;;;;;;0.00;0.00;;;;;;;;2;261079210;261079210;-78
2022/03/13 10:22:08;;;;;;;;;0.00;0.00;;;;;;;;2;288084324;288084324;-78
2022/03/13 10:30:24;;;;;;;;;0.00;0.00;;;;;;;;2;261076942;261076942;-77
2022/03/13 10:40:04;;;;;;;;;0.00;0.00;;;;;;;;2;288083468;288083468;-77
2022/03/13 10:48:23;;;;;;;;;0.00;0.00;;;;;;;;2;261076906;261076906;-76
2022/03/13 10:57:57;;;;;;;;;0.00;0.00;;;;;;;;2;288083199;288083199;-76
2022/03/13 11:06:12;;;;;;;;;0.00;0.00;;;;;;;;2;261078098;261078098;-75
2022/03/13 11:15:43;;;;;;;;;0.00;0.00;;;;;;;;2;288083736;288083736;-76
2022/03/13 11:24:00;;;;;;;;;0.00;0.00;;;;;;;;2;261079264;261079264;-75
2022/03/13 11:33:35;;;;;;;;;0.00;0.00;;;;;;;;2;288081625;288081625;-76
2022/03/13 11:41:53;;;;;;;;;0.00;0.00;;;;;;;;2;261074492;261074492;-76
2022/03/13 11:51:30;;;;;;;;;0.00;0.00;;;;;;;;2;288086831;288086831;-76
2022/03/13 11:59:55;;;;;;;;;0.00;0.00;;;;;;;;2;261077930;261077930;-76
2022/03/13 12:09:32;;;;;;;;;0.00;0.00;;;;;;;;2;288088809;288088809;-75
2022/03/13 12:17:48;;;;;;;;;0.00;0.00;;;;;;;;2;261076990;261076990;-76
2022/03/13 12:27:15;;;;;;;;;0.00;0.00;;;;;;;;2;288084245;288084245;-75
2022/03/13 12:35:31;;;;;;;;;0.00;0.00;;;;;;;;2;261080137;261080137;-76
2022/03/13 12:44:59;;;;;;;;;0.00;0.00;;;;;;;;2;288085349;288085349;-75
2022/03/13 12:53:22;;;;;;;;;0.00;0.00;;;;;;;;2;261076466;261076466;-75
2022/03/13 13:02:58;;;;;;;;;0.00;0.00;;;;;;;;2;288082437;288082437;-75
2022/03/13 13:11:26;;;;;;;;;0.00;0.00;;;;;;;;2;261073879;261073879;-75
2022/03/13 13:21:07;;;;;;;;;0.00;0.00;;;;;;;;2;288085145;288085145;-76
2022/03/13 13:29:33;;;;;;;;;0.00;0.00;;;;;;;;2;261077779;261077779;-76
2022/03/13 13:39:04;;;;;;;;;0.00;0.00;;;;;;;;2;288089389;288089389;-77
2022/03/13 13:47:24;;;;;;;;;0.00;0.00;;;;;;;;2;261078468;261078468;-76
2022/03/13 13:56:56;;;;;;;;;0.00;0.00;;;;;;;;2;288087405;288087405;-76
2022/03/13 14:05:11;;;;;;;;;0.00;0.00;;;;;;;;2;261079691;261079691;-76
2022/03/13 14:14:39;;;;;;;;;0.00;0.00;;;;;;;;2;288086622;288086622;-76
2022/03/13 14:22:54;;;;;;;;;0.00;0.00;;;;;;;;2;261076326;261076326;-76
2022/03/13 14:32:22;;;;;;;;;0.00;0.00;;;;;;;;2;288085813;288085813;-76
2022/03/13 14:40:37;;;;;;;;;0.00;0.00;;;;;;;;2;261080662;261080662;-76
2022/03/13 14:50:05;;;;;;;;;0.00;0.00;;;;;;;;2;288081321;288081321;-76
2022/03/13 14:58:21;;;;;;;;;0.00;0.00;;;;;;;;2;261078554;261078554;-75
2022/03/13 15:07:48;;;;;;;;;0.00;0.00;;;;;;;;2;288086643;288086643;-76
2022/03/13 15:16:04;;;;;;;;;0.00;0.00;;;;;;;;2;261082335;261082335;-76
2022/03/13 15:25:31;;;;;;;;;0.00;0.00;;;;;;;;2;288087099;288087099;-74
2022/03/13 15:33:48;;;;;;;;;0.00;0.00;;;;;;;;2;261080376;261080376;-76
2022/03/13 15:43:16;;;;;;;;;0.00;0.00;;;;;;;;2;288087065;288087065;-75
2022/03/13 15:51:32;;;;;;;;;0.00;0.00;;;;;;;;2;261077626;261077626;-75
2022/03/13 16:00:59;;;;;;;;;0.00;0.00;;;;;;;;2;288083318;288083318;-74
2022/03/13 16:09:15;;;;;;;;;0.00;0.00;;;;;;;;2;261077229;261077229;-76
2022/03/13 16:18:42;;;;;;;;;0.00;0.00;;;;;;;;2;288086231;288086231;-76
2022/03/13 16:26:58;;;;;;;;;0.00;0.00;;;;;;;;2;261076459;261076459;-75
2022/03/13 16:36:26;;;;;;;;;0.00;0.00;;;;;;;;2;288085241;288085241;-77
2022/03/13 16:44:42;;;;;;;;;0.00;0.00;;;;;;;;2;261080459;261080459;-78
2022/03/13 16:54:09;;;;;;;;;0.00;0.00;;;;;;;;2;288085531;288085531;-77
2022/03/13 17:02:25;;;;;;;;;0.00;0.00;;;;;;;;2;261079786;261079786;-76
2022/03/13 17:11:54;;;;;;;;;0.00;0.00;;;;;;;;2;288085340;288085340;-78
2022/03/13 17:20:13;;;;;;;;;0.00;0.00;;;;;;;;2;261078862;261078862;-78
2022/03/13 17:33:02;;;;;;;;;0.00;0.00;;;;;;;;2;288083634;288083634;-77
2022/03/13 17:41:17;;;;;;;;;0.00;0.00;;;;;;;;2;261076331;261076331;-76
2022/03/13 17:50:45;;;;;;;;;0.00;0.00;;;;;;;;2;288084286;288084286;-76
2022/03/13 17:59:01;;;;;;;;;0.00;0.00;;;;;;;;2;261075869;261075869;-76
2022/03/13 18:08:32;;;;;;;;;0.00;0.00;;;;;;;;2;288082829;288082829;-75
2022/03/13 18:16:47;;;;;;;;;0.00;0.00;;;;;;;;2;261083796;261083796;-77
2022/03/13 18:26:16;;;;;;;;;0.00;0.00;;;;;;;;2;288083363;288083363;-76
2022/03/13 18:34:31;;;;;;;;;0.00;0.00;;;;;;;;2;261076628;261076628;-76
2022/03/13 18:44:01;;;;;;;;;0.00;0.00;;;;;;;;2;288087053;288087053;-76
2022/03/13 18:52:16;;;;;;;;;0.00;0.00;;;;;;;;2;261078586;261078586;-78
2022/03/13 19:01:48;;;;;;;;;0.00;0.00;;;;;;;;2;288086054;288086054;-78
2022/03/13 19:10:05;;;;;;;;;0.00;0.00;;;;;;;;2;261076900;261076900;-78
2022/03/13 19:19:33;;;;;;;;;0.00;0.00;;;;;;;;2;288085107;288085107;-78
2022/03/13 19:27:51;;;;;;;;;0.00;0.00;;;;;;;;2;261076019;261076019;-78
2022/03/13 19:37:19;;;;;;;;;0.00;0.00;;;;;;;;2;288087575;288087575;-77
2022/03/13 19:45:35;;;;;;;;;0.00;0.00;;;;;;;;2;261076368;261076368;-78
2022/03/13 19:55:06;;;;;;;;;0.00;0.00;;;;;;;;2;288083343;288083343;-78
2022/03/13 20:03:22;;;;;;;;;0.00;0.00;;;;;;;;2;261079984;261079984;-77
2022/03/13 20:12:49;;;;;;;;;0.00;0.00;;;;;;;;2;288084422;288084422;-77
2022/03/13 20:21:05;;;;;;;;;0.00;0.00;;;;;;;;2;261080682;261080682;-77
2022/03/13 20:30:32;;;;;;;;;0.00;0.00;;;;;;;;2;288082882;288082882;-77
2022/03/13 20:38:48;;;;;;;;;0.00;0.00;;;;;;;;2;261078591;261078591;-77
2022/03/13 20:48:16;;;;;;;;;0.00;0.00;;;;;;;;2;288087058;288087058;-78
2022/03/13 20:56:31;;;;;;;;;0.00;0.00;;;;;;;;2;261078331;261078331;-78
2022/03/13 21:05:59;;;;;;;;;0.00;0.00;;;;;;;;2;288088908;288088908;-79
2022/03/13 21:14:17;;;;;;;;;0.00;0.00;;;;;;;;2;261079548;261079548;-81
2022/03/13 21:23:44;;;;;;;;;0.00;0.00;;;;;;;;2;288087054;288087054;-79
2022/03/13 21:32:00;;;;;;;;;0.00;0.00;;;;;;;;2;261078686;261078686;-79
2022/03/13 21:41:27;;;;;;;;;0.00;0.00;;;;;;;;2;288085160;288085160;-77
2022/03/13 21:49:43;;;;;;;;;0.00;0.00;;;;;;;;2;261076304;261076304;-76
2022/03/13 21:59:11;;;;;;;;;0.00;0.00;;;;;;;;2;288083711;288083711;-77
2022/03/13 22:07:28;;;;;;;;;0.00;0.00;;;;;;;;2;261078452;261078452;-77
2022/03/13 22:16:55;;;;;;;;;0.00;0.00;;;;;;;;2;288086579;288086579;-77
2022/03/13 22:25:11;;;;;;;;;0.00;0.00;;;;;;;;2;261078626;261078626;-79
2022/03/13 22:34:39;;;;;;;;;0.00;0.00;;;;;;;;2;288083412;288083412;-80
2022/03/13 22:42:54;;;;;;;;;0.00;0.00;;;;;;;;2;261075989;261075989;-79
2022/03/13 22:52:22;;;;;;;;;0.00;0.00;;;;;;;;2;288085090;288085090;-80
2022/03/13 23:00:37;;;;;;;;;0.00;0.00;;;;;;;;2;261075439;261075439;-80
2022/03/13 23:10:06;;;;;;;;;0.00;0.00;;;;;;;;2;288085283;288085283;-81
2022/03/13 23:18:25;;;;;;;;;0.00;0.00;;;;;;;;2;261076711;261076711;-81
2022/03/13 23:27:53;;;;;;;;;0.00;0.00;;;;;;;;2;288081532;288081532;-80
2022/03/13 23:36:10;;;;;;;;;0.00;0.00;;;;;;;;2;261077968;261077968;-80
2022/03/13 23:45:37;;;;;;;;;0.00;0.00;;;;;;;;2;288085468;288085468;-80
2022/03/13 23:53:53;;;;;;;;;0.00;0.00;;;;;;;;2;261076749;261076749;-80
